createdAt,value
2023-02-02T00:00:48.107Z,2.20
2023-02-02T00:03:50.935Z,2.47
2023-02-02T00:06:53.186Z,2.95
2023-02-02T00:09:55.241Z,3.20
2023-02-02T00:12:58.109Z,2.70
2023-02-02T00:16:00.332Z,2.45
2023-02-02T00:19:03.755Z,1.90
2023-02-02T00:22:06.125Z,2.40
2023-02-02T00:25:08.485Z,2.00
2023-02-02T00:28:10.817Z,1.50
2023-02-02T00:31:13.238Z,1.53
2023-02-02T00:34:15.525Z,1.30
2023-02-02T00:37:17.914Z,1.48
2023-02-02T00:40:20.050Z,1.30
2023-02-02T00:43:22.433Z,1.42
2023-02-02T00:46:24.509Z,1.45
2023-02-02T00:49:26.944Z,1.40
2023-02-02T00:52:29.176Z,1.80
2023-02-02T00:55:31.254Z,1.25
2023-02-02T00:58:33.187Z,1.60
2023-02-02T01:01:35.225Z,1.60
2023-02-02T01:04:37.899Z,1.65
2023-02-02T01:07:40.635Z,1.35
2023-02-02T01:10:42.695Z,2.07
2023-02-02T01:13:44.658Z,1.35
2023-02-02T01:16:46.669Z,1.60
2023-02-02T01:19:49.556Z,1.70
2023-02-02T01:22:52.452Z,1.40
2023-02-02T01:25:55.012Z,1.20
2023-02-02T01:28:56.950Z,1.20
2023-02-02T01:31:59.409Z,0.90
2023-02-02T01:35:01.804Z,1.23
2023-02-02T01:38:04.102Z,1.10
2023-02-02T01:41:07.137Z,1.20
2023-02-02T01:44:28.808Z,1.48
2023-02-02T01:47:36.411Z,1.30
2023-02-02T01:50:38.424Z,1.30
2023-02-02T01:53:41.111Z,1.20
2023-02-02T01:56:47.112Z,1.38
2023-02-02T01:59:49.073Z,1.65
2023-02-02T02:02:51.860Z,0.80
2023-02-02T02:06:00.272Z,1.10
2023-02-02T02:09:04.367Z,1.10
2023-02-02T02:12:13.437Z,1.17
2023-02-02T02:15:34.999Z,0.90
2023-02-02T02:18:45.735Z,1.25
2023-02-02T02:22:09.669Z,0.80
2023-02-02T02:25:43.036Z,0.77
2023-02-02T02:28:46.919Z,0.80
2023-02-02T02:32:04.313Z,0.75
2023-02-02T02:35:12.031Z,0.60
2023-02-02T02:38:20.899Z,0.70
2023-02-02T02:41:23.512Z,0.50
2023-02-02T02:44:26.163Z,0.30
2023-02-02T02:47:29.471Z,0.43
2023-02-02T02:50:31.945Z,0.35
2023-02-02T02:53:34.000Z,0.20
2023-02-02T02:57:08.246Z,0.40
2023-02-02T03:00:29.196Z,0.20
2023-02-02T03:03:37.342Z,0.38
2023-02-02T03:06:55.057Z,0.27
2023-02-02T03:09:57.014Z,0.47
2023-02-02T03:12:59.491Z,0.40
2023-02-02T03:16:01.419Z,0.50
2023-02-02T03:19:04.667Z,0.50
2023-02-02T03:22:08.251Z,0.52
2023-02-02T03:25:13.444Z,0.50
2023-02-02T03:28:16.011Z,0.40
2023-02-02T03:31:18.176Z,0.60
2023-02-02T03:34:20.143Z,1.00
2023-02-02T03:37:22.277Z,0.70
2023-02-02T03:40:24.247Z,0.70
2023-02-02T03:43:26.337Z,0.65
2023-02-02T03:46:28.295Z,0.70
2023-02-02T03:49:30.269Z,0.98
2023-02-02T03:52:32.175Z,1.00
2023-02-02T03:55:35.517Z,1.00
2023-02-02T03:58:37.639Z,0.75
2023-02-02T04:01:39.652Z,0.93
2023-02-02T04:04:41.951Z,0.80
2023-02-02T04:07:44.056Z,1.10
2023-02-02T04:10:46.488Z,0.80
2023-02-02T04:13:49.137Z,0.60
2023-02-02T04:16:51.621Z,0.73
2023-02-02T04:19:58.292Z,1.08
2023-02-02T04:23:00.709Z,0.80
2023-02-02T04:26:03.004Z,1.10
2023-02-02T04:29:12.187Z,0.63
2023-02-02T04:32:20.916Z,0.93
2023-02-02T04:35:23.154Z,0.73
2023-02-02T04:38:25.400Z,0.60
2023-02-02T04:41:27.472Z,0.82
2023-02-02T04:44:29.428Z,0.88
2023-02-02T04:47:31.568Z,0.50
2023-02-02T04:50:33.624Z,0.50
2023-02-02T04:53:36.287Z,0.88
2023-02-02T04:56:38.568Z,0.50
2023-02-02T04:59:42.491Z,0.45
2023-02-02T05:02:44.604Z,1.38
2023-02-02T05:05:47.043Z,0.52
2023-02-02T05:08:49.578Z,0.43
2023-02-02T05:11:51.607Z,0.85
2023-02-02T05:14:53.654Z,0.73
2023-02-02T05:17:55.728Z,0.50
2023-02-02T05:21:01.576Z,0.80
2023-02-02T05:24:04.214Z,0.47
2023-02-02T05:27:06.273Z,1.13
2023-02-02T05:30:09.420Z,0.63
2023-02-02T05:33:12.030Z,0.90
2023-02-02T05:36:14.095Z,0.63
2023-02-02T05:39:16.563Z,0.50
2023-02-02T05:42:18.616Z,0.65
2023-02-02T05:45:21.027Z,0.63
2023-02-02T05:48:23.101Z,1.07
2023-02-02T05:51:25.805Z,0.90
2023-02-02T05:54:27.810Z,1.02
2023-02-02T05:57:30.005Z,0.70
2023-02-02T06:00:32.102Z,0.73
2023-02-02T06:03:34.570Z,0.98
2023-02-02T06:06:38.465Z,1.20
2023-02-02T06:09:40.903Z,1.13
2023-02-02T06:12:44.271Z,0.90
2023-02-02T06:15:46.399Z,0.88
2023-02-02T06:18:48.714Z,1.00
2023-02-02T06:21:50.725Z,0.80
2023-02-02T06:24:53.573Z,1.10
2023-02-02T06:27:59.121Z,0.73
2023-02-02T06:31:05.171Z,0.80
2023-02-02T06:34:08.378Z,1.48
2023-02-02T06:37:11.037Z,1.30
2023-02-02T06:40:13.811Z,0.90
2023-02-02T06:43:19.092Z,1.00
2023-02-02T06:46:21.266Z,0.60
2023-02-02T06:49:23.438Z,0.70
2023-02-02T06:52:25.491Z,0.77
2023-02-02T06:55:28.063Z,1.23
2023-02-02T06:58:30.260Z,1.05
2023-02-02T07:01:32.582Z,1.20
2023-02-02T07:04:36.611Z,1.10
2023-02-02T07:07:53.159Z,1.10
2023-02-02T07:11:13.626Z,1.10
2023-02-02T07:14:18.084Z,1.20
2023-02-02T07:17:20.124Z,1.38
2023-02-02T07:20:23.125Z,0.80
2023-02-02T07:23:26.309Z,1.25
2023-02-02T07:26:31.526Z,1.05
2023-02-02T07:29:34.618Z,1.10
2023-02-02T07:32:36.745Z,1.08
2023-02-02T07:35:39.992Z,1.10
2023-02-02T07:38:42.453Z,0.80
2023-02-02T07:41:44.545Z,1.30
2023-02-02T07:45:00.364Z,0.90
2023-02-02T07:48:22.552Z,1.00
2023-02-02T07:51:25.618Z,0.63
2023-02-02T07:54:33.586Z,0.90
2023-02-02T07:57:39.421Z,0.80
2023-02-02T08:00:46.059Z,0.50
2023-02-02T08:03:53.785Z,0.93
2023-02-02T08:06:56.581Z,0.70
2023-02-02T08:09:58.996Z,0.88
2023-02-02T08:13:03.311Z,0.90
2023-02-02T08:16:19.104Z,0.90
2023-02-02T08:19:24.180Z,0.80
2023-02-02T08:22:26.284Z,0.80
2023-02-02T08:25:28.936Z,1.10
2023-02-02T08:28:30.956Z,0.93
2023-02-02T08:31:46.189Z,1.00
2023-02-02T08:34:59.574Z,0.82
2023-02-02T08:38:07.989Z,0.90
2023-02-02T08:41:10.953Z,0.85
2023-02-02T08:44:14.434Z,0.70
2023-02-02T08:47:16.852Z,0.90
2023-02-02T08:50:19.366Z,1.20
2023-02-02T08:53:21.520Z,0.70
2023-02-02T08:56:23.718Z,0.60
2023-02-02T08:59:25.748Z,0.80
2023-02-02T09:02:27.955Z,0.57
2023-02-02T09:05:30.387Z,0.77
2023-02-02T09:08:33.595Z,0.73
2023-02-02T09:11:35.781Z,0.60
2023-02-02T09:14:37.972Z,0.87
2023-02-02T09:17:40.027Z,0.82
2023-02-02T09:20:43.608Z,0.95
2023-02-02T09:23:45.895Z,1.00
2023-02-02T09:26:48.231Z,0.98
2023-02-02T09:29:51.382Z,1.30
2023-02-02T09:32:53.524Z,0.82
2023-02-02T09:35:55.509Z,1.30
2023-02-02T09:38:57.596Z,1.13
2023-02-02T09:42:04.463Z,0.90
2023-02-02T09:45:08.246Z,2.53
2023-02-02T09:48:20.004Z,0.93
2023-02-02T09:51:24.236Z,0.98
2023-02-02T09:54:33.176Z,1.10
2023-02-02T09:57:39.855Z,0.60
2023-02-02T10:00:44.448Z,1.38
2023-02-02T10:03:54.110Z,0.90
2023-02-02T10:07:00.536Z,0.85
2023-02-02T10:10:17.085Z,0.68
2023-02-02T10:13:25.737Z,0.75
2023-02-02T10:16:28.166Z,0.80
2023-02-02T10:19:32.162Z,1.10
2023-02-02T10:22:34.435Z,1.13
2023-02-02T10:25:36.892Z,1.02
2023-02-02T10:28:58.213Z,0.90
2023-02-02T10:32:07.987Z,0.80
2023-02-02T10:35:20.221Z,0.95
2023-02-02T10:38:26.792Z,1.20
2023-02-02T10:41:30.819Z,0.68
2023-02-02T10:44:33.010Z,0.90
2023-02-02T10:47:35.459Z,0.88
2023-02-02T10:50:38.277Z,1.08
2023-02-02T10:53:40.606Z,0.85
2023-02-02T10:56:44.130Z,0.90
2023-02-02T11:00:01.885Z,1.40
2023-02-02T11:03:07.149Z,1.20
2023-02-02T11:06:29.334Z,1.08
2023-02-02T11:09:32.531Z,0.80
2023-02-02T11:12:35.227Z,0.70
2023-02-02T11:15:37.530Z,1.00
2023-02-02T11:18:39.625Z,1.08
2023-02-02T11:21:42.153Z,1.17
2023-02-02T11:24:47.731Z,1.05
2023-02-02T11:27:49.797Z,0.90
2023-02-02T11:30:52.797Z,1.17
2023-02-02T11:33:54.940Z,1.10
2023-02-02T11:37:03.190Z,1.30
2023-02-02T11:40:22.686Z,0.90
2023-02-02T11:43:29.032Z,1.75
2023-02-02T11:46:35.168Z,1.20
2023-02-02T11:49:38.728Z,1.52
2023-02-02T11:52:41.385Z,0.80
2023-02-02T11:55:43.873Z,1.35
2023-02-02T11:58:46.713Z,1.00
2023-02-02T12:01:48.831Z,1.35
2023-02-02T12:04:52.466Z,1.90
2023-02-02T12:07:54.550Z,1.40
2023-02-02T12:10:58.191Z,1.45
2023-02-02T12:14:11.990Z,1.10
2023-02-02T12:17:33.217Z,1.70
2023-02-02T12:20:38.457Z,1.08
2023-02-02T12:23:47.135Z,1.10
2023-02-02T12:26:51.013Z,1.10
2023-02-02T12:30:12.468Z,1.50
2023-02-02T12:33:14.592Z,1.20
2023-02-02T12:36:31.835Z,1.30
2023-02-02T12:39:44.817Z,0.97
2023-02-02T12:43:06.300Z,0.80
2023-02-02T12:46:10.758Z,1.00
2023-02-02T12:49:28.695Z,1.25
2023-02-02T12:52:46.635Z,1.40
2023-02-02T12:56:04.830Z,1.27
2023-02-02T12:59:13.935Z,1.30
2023-02-02T13:02:25.683Z,1.30
2023-02-02T13:05:32.398Z,1.30
2023-02-02T13:08:40.645Z,1.00
2023-02-02T13:11:50.791Z,1.33
2023-02-02T13:14:56.999Z,1.50
2023-02-02T13:17:59.587Z,10.68
2023-02-02T13:21:11.494Z,3.60
2023-02-02T13:24:14.637Z,1.70
2023-02-02T13:27:18.919Z,3.53
2023-02-02T13:30:25.232Z,1.65
2023-02-02T13:33:29.207Z,1.35
2023-02-02T13:36:36.058Z,1.75
2023-02-02T13:39:46.054Z,1.30
2023-02-02T13:42:48.320Z,2.08
2023-02-02T13:45:56.808Z,1.67
2023-02-02T13:49:08.433Z,1.30
2023-02-02T13:52:16.579Z,1.80
2023-02-02T13:55:22.613Z,1.80
2023-02-02T13:58:25.119Z,1.80
2023-02-02T14:01:27.350Z,2.20
2023-02-02T14:04:30.192Z,1.83
2023-02-02T14:07:44.354Z,2.15
2023-02-02T14:10:52.793Z,2.03
2023-02-02T14:14:16.214Z,1.80
2023-02-02T14:17:21.418Z,2.00
2023-02-02T14:20:40.992Z,1.90
2023-02-02T14:23:51.203Z,2.10
2023-02-02T14:26:53.382Z,2.40
2023-02-02T14:29:57.365Z,1.98
2023-02-02T14:33:18.410Z,3.70
2023-02-02T14:36:23.413Z,1.52
2023-02-02T14:39:26.265Z,1.70
2023-02-02T14:42:55.308Z,1.98
2023-02-02T14:46:05.168Z,1.73
2023-02-02T14:49:09.427Z,1.70
2023-02-02T14:52:20.053Z,1.88
2023-02-02T14:55:22.148Z,1.48
2023-02-02T14:58:27.770Z,1.63
2023-02-02T15:01:31.133Z,1.70
2023-02-02T15:04:33.212Z,2.55
2023-02-02T15:07:36.285Z,1.90
2023-02-02T15:10:54.103Z,1.48
2023-02-02T15:14:07.386Z,2.13
2023-02-02T15:17:13.093Z,2.17
2023-02-02T15:20:27.279Z,2.20
2023-02-02T15:23:30.824Z,2.28
2023-02-02T15:26:34.298Z,1.83
2023-02-02T15:29:42.909Z,1.40
2023-02-02T15:32:44.972Z,1.67
2023-02-02T15:35:47.746Z,2.13
2023-02-02T15:38:50.832Z,2.97
2023-02-02T15:42:14.781Z,2.83
2023-02-02T15:45:38.071Z,2.22
2023-02-02T15:48:40.147Z,2.00
2023-02-02T15:51:48.904Z,1.80
2023-02-02T15:54:57.831Z,2.30
2023-02-02T15:58:00.181Z,2.08
2023-02-02T16:01:03.675Z,1.70
2023-02-02T16:04:08.226Z,1.75
2023-02-02T16:07:14.628Z,2.10
2023-02-02T16:10:18.675Z,1.45
2023-02-02T16:13:24.367Z,1.50
2023-02-02T16:16:27.548Z,3.10
2023-02-02T16:19:30.347Z,2.50
2023-02-02T16:22:32.364Z,2.40
2023-02-02T16:25:48.586Z,7.25
2023-02-02T16:28:51.808Z,1.98
2023-02-02T16:32:25.786Z,1.97
2023-02-02T16:35:34.787Z,1.85
2023-02-02T16:38:37.412Z,1.70
2023-02-02T16:41:39.556Z,3.08
2023-02-02T16:44:43.637Z,2.10
2023-02-02T16:47:45.693Z,2.60
2023-02-02T16:50:48.569Z,2.08
2023-02-02T16:53:58.469Z,1.77
2023-02-02T16:57:01.325Z,1.63
2023-02-02T17:00:05.870Z,2.45
2023-02-02T17:03:08.221Z,1.80
2023-02-02T17:06:10.330Z,3.35
2023-02-02T17:09:15.989Z,1.88
2023-02-02T17:12:35.354Z,2.00
2023-02-02T17:15:37.715Z,3.08
2023-02-02T17:18:40.194Z,2.10
2023-02-02T17:21:42.341Z,2.25
2023-02-02T17:24:45.392Z,2.17
2023-02-02T17:27:47.550Z,11.40
2023-02-02T17:30:52.064Z,2.60
2023-02-02T17:33:54.644Z,3.63
2023-02-02T17:36:57.235Z,2.33
2023-02-02T17:39:59.186Z,2.45
2023-02-02T17:43:02.987Z,2.20
2023-02-02T17:46:05.440Z,2.20
2023-02-02T17:49:07.479Z,2.30
2023-02-02T17:52:10.186Z,2.15
2023-02-02T17:55:20.002Z,2.50
2023-02-02T17:58:22.089Z,1.80
2023-02-02T18:01:24.344Z,2.67
2023-02-02T18:04:27.028Z,1.87
2023-02-02T18:07:29.009Z,2.50
2023-02-02T18:10:31.196Z,2.05
2023-02-02T18:13:33.231Z,2.72
2023-02-02T18:16:35.668Z,2.30
2023-02-02T18:19:39.279Z,2.47
2023-02-02T18:22:44.297Z,2.55
2023-02-02T18:25:46.321Z,2.27
2023-02-02T18:28:51.618Z,3.00
2023-02-02T18:31:54.096Z,2.50
2023-02-02T18:34:56.817Z,3.07
2023-02-02T18:37:59.136Z,2.97
2023-02-02T18:41:02.012Z,3.08
2023-02-02T18:44:04.440Z,3.90
2023-02-02T18:47:07.633Z,3.08
2023-02-02T18:50:09.843Z,3.20
2023-02-02T18:53:11.838Z,2.90
2023-02-02T18:56:14.301Z,3.27
2023-02-02T18:59:16.388Z,2.85
2023-02-02T19:02:18.969Z,4.82
2023-02-02T19:05:39.689Z,3.43
2023-02-02T19:08:42.087Z,2.95
2023-02-02T19:11:47.650Z,4.30
2023-02-02T19:14:49.814Z,2.58
2023-02-02T19:17:52.742Z,2.95
2023-02-02T19:20:54.863Z,3.25
2023-02-02T19:23:56.925Z,3.33
2023-02-02T19:26:59.048Z,2.37
2023-02-02T19:30:01.448Z,2.90
2023-02-02T19:33:08.741Z,2.70
2023-02-02T19:36:15.002Z,2.87
2023-02-02T19:39:18.343Z,2.75
2023-02-02T19:42:20.301Z,3.50
2023-02-02T19:45:28.746Z,2.92
2023-02-02T19:48:31.545Z,3.20
2023-02-02T19:51:33.610Z,3.40
2023-02-02T19:54:36.742Z,3.03
2023-02-02T19:57:41.910Z,3.20
2023-02-02T20:00:46.822Z,3.58
2023-02-02T20:03:51.042Z,3.30
2023-02-02T20:06:59.314Z,2.97
2023-02-02T20:10:42.498Z,2.92
2023-02-02T20:13:48.446Z,2.65
2023-02-02T20:16:54.033Z,3.28
2023-02-02T20:19:56.252Z,3.33
2023-02-02T20:22:58.183Z,3.40
2023-02-02T20:26:00.285Z,3.35
2023-02-02T20:29:11.504Z,3.80
2023-02-02T20:32:21.819Z,3.67
2023-02-02T20:35:25.674Z,3.58
2023-02-02T20:38:28.578Z,5.03
2023-02-02T20:41:30.662Z,4.13
2023-02-02T20:44:33.020Z,4.20
2023-02-02T20:47:34.997Z,3.28
2023-02-02T20:50:36.971Z,3.58
2023-02-02T20:53:41.062Z,3.08
2023-02-02T20:56:43.032Z,2.53
2023-02-02T20:59:45.120Z,3.23
2023-02-02T21:02:48.616Z,3.03
2023-02-02T21:05:51.001Z,2.63
2023-02-02T21:08:53.544Z,3.00
2023-02-02T21:11:56.104Z,2.90
2023-02-02T21:14:58.134Z,2.90
2023-02-02T21:18:00.265Z,3.03
2023-02-02T21:21:02.756Z,3.42
2023-02-02T21:24:05.235Z,3.45
2023-02-02T21:27:07.766Z,3.72
2023-02-02T21:30:10.180Z,3.20
2023-02-02T21:33:12.265Z,3.40
2023-02-02T21:36:14.553Z,3.33
2023-02-02T21:39:17.212Z,3.20
2023-02-02T21:42:20.068Z,3.45
2023-02-02T21:45:25.294Z,4.05
2023-02-02T21:48:33.935Z,3.40
2023-02-02T21:51:36.408Z,3.53
2023-02-02T21:54:38.389Z,4.07
2023-02-02T21:57:42.210Z,4.05
2023-02-02T22:00:44.660Z,3.90
2023-02-02T22:03:49.613Z,4.60
2023-02-02T22:07:15.240Z,4.03
2023-02-02T22:10:37.190Z,3.80
2023-02-02T22:13:39.269Z,3.75
2023-02-02T22:16:43.473Z,4.15
2023-02-02T22:19:45.865Z,3.75
2023-02-02T22:22:48.931Z,4.10
2023-02-02T22:25:53.132Z,4.32
2023-02-02T22:28:55.189Z,3.70
2023-02-02T22:31:57.233Z,3.43
2023-02-02T22:34:59.264Z,3.40
2023-02-02T22:38:01.387Z,3.63
2023-02-02T22:41:03.500Z,3.30
2023-02-02T22:44:06.134Z,3.40
2023-02-02T22:47:08.467Z,3.10
2023-02-02T22:50:10.983Z,3.25
2023-02-02T22:53:15.407Z,3.45
2023-02-02T22:56:17.460Z,3.35
2023-02-02T22:59:19.440Z,3.33
2023-02-02T23:02:21.828Z,3.60
2023-02-02T23:05:24.823Z,3.67
2023-02-02T23:08:27.333Z,3.58
2023-02-02T23:11:29.260Z,3.73
2023-02-02T23:14:31.245Z,3.80
2023-02-02T23:17:35.244Z,3.83
2023-02-02T23:20:37.321Z,3.40
2023-02-02T23:23:39.284Z,3.80
2023-02-02T23:26:41.480Z,3.85
2023-02-02T23:29:43.818Z,3.53
2023-02-02T23:32:46.079Z,3.50
2023-02-02T23:35:48.468Z,4.03
2023-02-02T23:38:50.792Z,3.42
2023-02-02T23:41:52.731Z,3.70
2023-02-02T23:44:54.660Z,3.70
2023-02-02T23:47:56.808Z,3.10
2023-02-02T23:50:59.109Z,3.13
2023-02-02T23:54:01.321Z,3.50
2023-02-02T23:57:03.820Z,3.38
